Terminal Aerodrome Forecast
Issued by NWS Wichita, KS

Home | Current Version | Previous Version | Text Only | Print | Product List | Glossary On
Versions: 1 2 3 4 5 6 7 8 9 10 11 12 13 14 15
000
FTUS43 KICT 180500
TAFICT
TAF
KICT 180520Z 1806/1906 35025G38KT P6SM -TSRA BKN070CB
     FM180700 35015KT P6SM SCT060 BKN120
     FM181000 10008KT P6SM SCT250
     FM181300 18009KT P6SM SCT250
     FM181900 21013KT P6SM SCT250=

USA.gov is the U.S. government's official web portal to all federal, state and local government web resources and services.